sensor_id;sensor_type;location;lat;lon;timestamp;pressure;altitude;pressure_sealevel;temperature;humidity
65175;BME280;51761;42.126;24.752;2023-04-29T00:00:40;99791.69;;;9.38;73.55
65175;BME280;51761;42.126;24.752;2023-04-29T00:03:06;99795.69;;;9.34;73.62
65175;BME280;51761;42.126;24.752;2023-04-29T00:05:32;99790.56;;;9.29;74.79
65175;BME280;51761;42.126;24.752;2023-04-29T00:07:57;99801.34;;;9.27;74.71
65175;BME280;51761;42.126;24.752;2023-04-29T00:10:23;99794.19;;;9.19;74.44
65175;BME280;51761;42.126;24.752;2023-04-29T00:12:49;99804.50;;;9.25;74.48
65175;BME280;51761;42.126;24.752;2023-04-29T00:15:16;99793.31;;;9.32;74.08
65175;BME280;51761;42.126;24.752;2023-04-29T00:17:41;99790.28;;;9.13;74.43
65175;BME280;51761;42.126;24.752;2023-04-29T00:20:07;99786.28;;;9.14;75.04
65175;BME280;51761;42.126;24.752;2023-04-29T00:22:34;99791.16;;;9.03;75.89
65175;BME280;51761;42.126;24.752;2023-04-29T00:25:00;99761.81;;;8.88;76.04
65175;BME280;51761;42.126;24.752;2023-04-29T00:27:25;99792.69;;;9.07;76.09
65175;BME280;51761;42.126;24.752;2023-04-29T00:29:51;99784.81;;;8.99;75.27
65175;BME280;51761;42.126;24.752;2023-04-29T00:32:17;99767.03;;;8.79;76.23
65175;BME280;51761;42.126;24.752;2023-04-29T00:34:42;99787.28;;;8.83;76.53
65175;BME280;51761;42.126;24.752;2023-04-29T00:37:08;99792.09;;;8.75;77.07
65175;BME280;51761;42.126;24.752;2023-04-29T00:39:33;99796.03;;;8.85;77.56
65175;BME280;51761;42.126;24.752;2023-04-29T00:41:59;99756.41;;;8.63;77.28
65175;BME280;51761;42.126;24.752;2023-04-29T00:44:24;99791.28;;;8.78;76.83
65175;BME280;51761;42.126;24.752;2023-04-29T00:46:50;99794.44;;;8.87;77.18
65175;BME280;51761;42.126;24.752;2023-04-29T00:49:15;99784.19;;;8.70;77.36
65175;BME280;51761;42.126;24.752;2023-04-29T00:51:41;99775.88;;;8.67;77.27
65175;BME280;51761;42.126;24.752;2023-04-29T00:54:07;99797.28;;;8.77;77.83
65175;BME280;51761;42.126;24.752;2023-04-29T00:56:34;99775.13;;;8.59;78.13
65175;BME280;51761;42.126;24.752;2023-04-29T00:59:01;99794.50;;;8.77;77.22
65175;BME280;51761;42.126;24.752;2023-04-29T01:01:28;99786.59;;;8.72;77.71
65175;BME280;51761;42.126;24.752;2023-04-29T01:03:55;99788.16;;;8.69;78.03
65175;BME280;51761;42.126;24.752;2023-04-29T01:12:33;99796.91;;;8.75;77.66
65175;BME280;51761;42.126;24.752;2023-04-29T01:15:08;99770.75;;;8.58;78.02
65175;BME280;51761;42.126;24.752;2023-04-29T01:18:32;99792.16;;;8.72;78.82
65175;BME280;51761;42.126;24.752;2023-04-29T01:20:33;99788.16;;;8.73;76.52
65175;BME280;51761;42.126;24.752;2023-04-29T01:22:59;99789.00;;;8.66;76.05
65175;BME280;51761;42.126;24.752;2023-04-29T01:25:25;99761.75;;;8.26;78.34
65175;BME280;51761;42.126;24.752;2023-04-29T01:30:51;99785.22;;;8.18;78.33
65175;BME280;51761;42.126;24.752;2023-04-29T01:38:43;99758.38;;;7.46;80.18
65175;BME280;51761;42.126;24.752;2023-04-29T01:41:13;99782.56;;;7.56;80.41
65175;BME280;51761;42.126;24.752;2023-04-29T01:43:40;99776.25;;;7.45;80.96
65175;BME280;51761;42.126;24.752;2023-04-29T01:46:08;99769.88;;;7.55;80.98
65175;BME280;51761;42.126;24.752;2023-04-29T01:48:36;99765.13;;;7.45;81.77
65175;BME280;51761;42.126;24.752;2023-04-29T01:51:01;99770.69;;;7.45;81.63
65175;BME280;51761;42.126;24.752;2023-04-29T01:53:27;99766.72;;;7.46;82.97
65175;BME280;51761;42.126;24.752;2023-04-29T01:55:52;99775.03;;;7.53;82.83
65175;BME280;51761;42.126;24.752;2023-04-29T01:58:18;99771.06;;;7.68;83.08
65175;BME280;51761;42.126;24.752;2023-04-29T02:00:43;99765.88;;;7.63;82.60
65175;BME280;51761;42.126;24.752;2023-04-29T02:03:09;99766.25;;;7.78;81.74
65175;BME280;51761;42.126;24.752;2023-04-29T02:05:34;99764.25;;;7.79;82.03
65175;BME280;51761;42.126;24.752;2023-04-29T02:08:00;99772.19;;;7.77;82.49
65175;BME280;51761;42.126;24.752;2023-04-29T02:10:27;99757.53;;;7.77;82.65
65175;BME280;51761;42.126;24.752;2023-04-29T02:12:52;99765.84;;;7.73;82.07
65175;BME280;51761;42.126;24.752;2023-04-29T02:15:19;99773.81;;;7.75;82.28
65175;BME280;51761;42.126;24.752;2023-04-29T02:17:44;99769.03;;;7.82;81.80
65175;BME280;51761;42.126;24.752;2023-04-29T02:20:11;99751.56;;;7.71;81.66
65175;BME280;51761;42.126;24.752;2023-04-29T02:22:37;99774.59;;;7.78;81.77
65175;BME280;51761;42.126;24.752;2023-04-29T02:25:02;99768.63;;;7.83;82.00
65175;BME280;51761;42.126;24.752;2023-04-29T02:27:28;99774.97;;;7.77;80.74
65175;BME280;51761;42.126;24.752;2023-04-29T02:29:53;99773.03;;;7.67;81.08
65175;BME280;51761;42.126;24.752;2023-04-29T02:32:19;99759.53;;;7.62;81.45
65175;BME280;51761;42.126;24.752;2023-04-29T02:34:45;99762.69;;;7.71;82.09
65175;BME280;51761;42.126;24.752;2023-04-29T02:37:11;99759.94;;;7.68;82.52
65175;BME280;51761;42.126;24.752;2023-04-29T02:39:36;99768.66;;;7.70;81.70
65175;BME280;51761;42.126;24.752;2023-04-29T02:42:02;99729.78;;;7.56;81.63
65175;BME280;51761;42.126;24.752;2023-04-29T02:44:28;99772.19;;;7.77;80.86
65175;BME280;51761;42.126;24.752;2023-04-29T02:46:55;99755.97;;;7.65;81.68
65175;BME280;51761;42.126;24.752;2023-04-29T02:49:20;99759.94;;;7.68;81.91
65175;BME280;51761;42.126;24.752;2023-04-29T02:51:46;99749.22;;;7.59;81.69
65175;BME280;51761;42.126;24.752;2023-04-29T02:54:14;99769.84;;;7.65;81.76
65175;BME280;51761;42.126;24.752;2023-04-29T02:56:39;99748.41;;;7.59;81.39
65175;BME280;51761;42.126;24.752;2023-04-29T02:59:05;99772.59;;;7.86;81.38
65175;BME280;51761;42.126;24.752;2023-04-29T03:01:30;99776.97;;;7.77;81.53
65175;BME280;51761;42.126;24.752;2023-04-29T03:03:56;99779.75;;;7.77;81.64
65175;BME280;51761;42.126;24.752;2023-04-29T03:06:22;99762.31;;;7.66;81.68
65175;BME280;51761;42.126;24.752;2023-04-29T03:08:47;99775.78;;;7.74;81.99
65175;BME280;51761;42.126;24.752;2023-04-29T03:11:13;99773.41;;;7.73;82.42
65175;BME280;51761;42.126;24.752;2023-04-29T03:13:38;99784.09;;;7.84;81.59
65175;BME280;51761;42.126;24.752;2023-04-29T03:16:04;99778.16;;;7.79;81.12
65175;BME280;51761;42.126;24.752;2023-04-29T03:18:30;99773.41;;;7.73;80.69
65175;BME280;51761;42.126;24.752;2023-04-29T03:20:56;99769.06;;;7.58;81.91
65175;BME280;51761;42.126;24.752;2023-04-29T03:23:22;99781.75;;;7.73;81.10
65175;BME280;51761;42.126;24.752;2023-04-29T03:25:48;99790.88;;;7.73;79.96
65175;BME280;51761;42.126;24.752;2023-04-29T03:28:14;99770.25;;;7.67;81.77
65175;BME280;51761;42.126;24.752;2023-04-29T03:30:40;99779.34;;;7.78;80.69
65175;BME280;51761;42.126;24.752;2023-04-29T03:33:05;99794.03;;;7.85;80.14
65175;BME280;51761;42.126;24.752;2023-04-29T03:35:31;99771.81;;;7.82;81.48
65175;BME280;51761;42.126;24.752;2023-04-29T03:37:56;99773.78;;;7.81;80.50
65175;BME280;51761;42.126;24.752;2023-04-29T03:40:22;99799.59;;;7.85;81.71
65175;BME280;51761;42.126;24.752;2023-04-29T03:42:47;99781.75;;;7.69;81.23
65175;BME280;51761;42.126;24.752;2023-04-29T03:45:13;99805.16;;;7.85;80.26
65175;BME280;51761;42.126;24.752;2023-04-29T03:47:39;99794.44;;;7.77;81.02
65175;BME280;51761;42.126;24.752;2023-04-29T03:50:06;99784.09;;;7.88;80.96
65175;BME280;51761;42.126;24.752;2023-04-29T03:52:32;99799.97;;;7.98;80.21
65175;BME280;51761;42.126;24.752;2023-04-29T03:55:01;99785.69;;;7.85;80.06
65175;BME280;51761;42.126;24.752;2023-04-29T03:57:26;99806.66;;;8.21;80.49
65175;BME280;51761;42.126;24.752;2023-04-29T03:59:52;99817.00;;;8.28;80.56
65175;BME280;51761;42.126;24.752;2023-04-29T04:02:17;99817.78;;;8.14;79.28
65175;BME280;51761;42.126;24.752;2023-04-29T04:04:44;99792.75;;;8.21;79.89
65175;BME280;51761;42.126;24.752;2023-04-29T04:07:09;99819.34;;;8.40;78.84
65175;BME280;51761;42.126;24.752;2023-04-29T04:09:36;99806.16;;;8.51;79.20
65175;BME280;51761;42.126;24.752;2023-04-29T04:12:02;99828.28;;;8.79;78.21
65175;BME280;51761;42.126;24.752;2023-04-29T04:14:28;99823.13;;;8.81;75.88
65175;BME280;51761;42.126;24.752;2023-04-29T04:16:53;99816.28;;;8.92;74.65
65175;BME280;51761;42.126;24.752;2023-04-29T04:19:19;99814.66;;;8.98;74.02
65175;BME280;51761;42.126;24.752;2023-04-29T04:21:44;99799.25;;;8.83;72.13
65175;BME280;51761;42.126;24.752;2023-04-29T04:24:10;99830.25;;;8.85;72.17
65175;BME280;51761;42.126;24.752;2023-04-29T04:26:35;99808.00;;;8.82;72.51
65175;BME280;51761;42.126;24.752;2023-04-29T04:29:01;99809.91;;;8.95;73.73
65175;BME280;51761;42.126;24.752;2023-04-29T04:31:27;99828.53;;;9.05;71.63
65175;BME280;51761;42.126;24.752;2023-04-29T04:33:53;99828.88;;;9.14;71.22
65175;BME280;51761;42.126;24.752;2023-04-29T04:36:18;99804.91;;;9.27;73.00
65175;BME280;51761;42.126;24.752;2023-04-29T04:38:44;99810.84;;;9.29;70.38
65175;BME280;51761;42.126;24.752;2023-04-29T04:41:09;99802.41;;;9.39;71.24
65175;BME280;51761;42.126;24.752;2023-04-29T04:43:35;99824.19;;;9.55;70.20
65175;BME280;51761;42.126;24.752;2023-04-29T04:46:11;99804.75;;;9.44;69.44
65175;BME280;51761;42.126;24.752;2023-04-29T04:48:37;99823.31;;;9.65;70.87
65175;BME280;51761;42.126;24.752;2023-04-29T04:51:10;99829.28;;;9.67;71.25
65175;BME280;51761;42.126;24.752;2023-04-29T04:53:36;99832.81;;;9.71;71.64
65175;BME280;51761;42.126;24.752;2023-04-29T04:56:02;99837.53;;;9.77;71.58
65175;BME280;51761;42.126;24.752;2023-04-29T04:58:29;99840.72;;;9.79;71.82
65175;BME280;51761;42.126;24.752;2023-04-29T05:00:56;99809.31;;;9.72;71.31
65175;BME280;51761;42.126;24.752;2023-04-29T05:03:21;99821.88;;;9.87;68.60
65175;BME280;51761;42.126;24.752;2023-04-29T05:05:57;99846.16;;;9.90;68.63
65175;BME280;51761;42.126;24.752;2023-04-29T05:08:24;99842.16;;;9.94;68.80
65175;BME280;51761;42.126;24.752;2023-04-29T05:10:50;99840.19;;;9.91;67.17
65175;BME280;51761;42.126;24.752;2023-04-29T05:13:16;99828.34;;;9.80;67.23
65175;BME280;51761;42.126;24.752;2023-04-29T05:15:42;99850.81;;;10.07;66.82
65175;BME280;51761;42.126;24.752;2023-04-29T05:18:08;99850.88;;;10.00;67.14
65175;BME280;51761;42.126;24.752;2023-04-29T05:20:33;99823.94;;;9.83;68.94
65175;BME280;51761;42.126;24.752;2023-04-29T05:22:59;99819.09;;;9.87;69.51
65175;BME280;51761;42.126;24.752;2023-04-29T05:25:25;99845.22;;;10.10;69.33
65175;BME280;51761;42.126;24.752;2023-04-29T05:27:50;99846.84;;;10.04;67.36
65175;BME280;51761;42.126;24.752;2023-04-29T05:30:16;99843.19;;;10.14;67.09
65175;BME280;51761;42.126;24.752;2023-04-29T05:32:43;99822.09;;;10.10;66.75
65175;BME280;51761;42.126;24.752;2023-04-29T05:35:10;99832.41;;;10.13;67.33
65175;BME280;51761;42.126;24.752;2023-04-29T05:37:36;99828.28;;;10.28;68.15
65175;BME280;51761;42.126;24.752;2023-04-29T05:40:01;99812.31;;;10.28;68.22
65175;BME280;51761;42.126;24.752;2023-04-29T05:42:27;99807.72;;;10.45;68.14
65175;BME280;51761;42.126;24.752;2023-04-29T05:44:52;99804.06;;;10.51;68.29
65175;BME280;51761;42.126;24.752;2023-04-29T05:47:18;99824.69;;;10.91;67.12
65175;BME280;51761;42.126;24.752;2023-04-29T05:49:43;99818.16;;;11.00;67.01
65175;BME280;51761;42.126;24.752;2023-04-29T05:52:09;99812.16;;;11.02;67.06
65175;BME280;51761;42.126;24.752;2023-04-29T05:54:34;99812.50;;;11.30;67.78
65175;BME280;51761;42.126;24.752;2023-04-29T05:57:01;99807.28;;;11.82;63.63
65175;BME280;51761;42.126;24.752;2023-04-29T05:59:30;99790.66;;;11.94;64.55
65175;BME280;51761;42.126;24.752;2023-04-29T06:01:56;99788.59;;;12.18;63.80
65175;BME280;51761;42.126;24.752;2023-04-29T06:04:22;99810.72;;;12.70;61.77
65175;BME280;51761;42.126;24.752;2023-04-29T06:06:49;99791.25;;;12.83;60.71
65175;BME280;51761;42.126;24.752;2023-04-29T06:09:15;99776.06;;;13.00;55.71
65175;BME280;51761;42.126;24.752;2023-04-29T06:11:40;99794.66;;;13.10;60.52
65175;BME280;51761;42.126;24.752;2023-04-29T06:14:06;99794.25;;;13.43;58.38
65175;BME280;51761;42.126;24.752;2023-04-29T06:16:33;99787.22;;;13.67;57.03
65175;BME280;51761;42.126;24.752;2023-04-29T06:18:58;99783.06;;;13.88;56.01
65175;BME280;51761;42.126;24.752;2023-04-29T06:21:24;99778.88;;;13.96;56.40
65175;BME280;51761;42.126;24.752;2023-04-29T06:23:52;99780.72;;;14.30;53.85
65175;BME280;51761;42.126;24.752;2023-04-29T06:26:18;99785.44;;;14.62;53.13
65175;BME280;51761;42.126;24.752;2023-04-29T06:28:48;99785.59;;;14.83;52.45
65175;BME280;51761;42.126;24.752;2023-04-29T06:31:14;99789.63;;;14.70;52.58
65175;BME280;51761;42.126;24.752;2023-04-29T06:33:40;99769.06;;;14.85;73.01
65175;BME280;51761;42.126;24.752;2023-04-29T06:36:05;99788.63;;;15.76;59.61
65175;BME280;51761;42.126;24.752;2023-04-29T06:38:31;99784.06;;;16.59;51.38
65175;BME280;51761;42.126;24.752;2023-04-29T06:40:56;99778.69;;;17.73;55.42
65175;BME280;51761;42.126;24.752;2023-04-29T06:43:25;99785.94;;;18.82;46.66
65175;BME280;51761;42.126;24.752;2023-04-29T06:45:51;99780.06;;;19.54;44.71
65175;BME280;51761;42.126;24.752;2023-04-29T06:48:17;99784.19;;;20.47;43.36
65175;BME280;51761;42.126;24.752;2023-04-29T06:50:56;99790.03;;;20.95;38.14
65175;BME280;51761;42.126;24.752;2023-04-29T06:53:23;99778.34;;;21.37;39.25
65175;BME280;51761;42.126;24.752;2023-04-29T06:55:49;99771.38;;;22.41;46.72
65175;BME280;51761;42.126;24.752;2023-04-29T06:58:15;99774.50;;;22.43;37.64
65175;BME280;51761;42.126;24.752;2023-04-29T07:00:48;99768.50;;;23.12;34.46
65175;BME280;51761;42.126;24.752;2023-04-29T07:03:15;99762.72;;;22.81;35.67
65175;BME280;51761;42.126;24.752;2023-04-29T07:05:42;99755.53;;;22.85;32.16
65175;BME280;51761;42.126;24.752;2023-04-29T07:08:10;99752.59;;;23.05;34.13
65175;BME280;51761;42.126;24.752;2023-04-29T07:10:37;99755.06;;;22.67;36.90
65175;BME280;51761;42.126;24.752;2023-04-29T07:13:03;99755.13;;;22.47;38.18
65175;BME280;51761;42.126;24.752;2023-04-29T07:15:32;99749.53;;;22.58;35.08
65175;BME280;51761;42.126;24.752;2023-04-29T07:17:58;99745.59;;;23.01;38.77
65175;BME280;51761;42.126;24.752;2023-04-29T07:20:24;99755.53;;;23.11;33.81
65175;BME280;51761;42.126;24.752;2023-04-29T07:22:50;99749.13;;;23.89;34.52
65175;BME280;51761;42.126;24.752;2023-04-29T07:25:15;99758.53;;;23.64;29.40
65175;BME280;51761;42.126;24.752;2023-04-29T07:27:41;99760.44;;;24.20;30.42
65175;BME280;51761;42.126;24.752;2023-04-29T07:30:07;99764.09;;;24.25;28.88
65175;BME280;51761;42.126;24.752;2023-04-29T07:32:33;99757.84;;;23.80;32.85
65175;BME280;51761;42.126;24.752;2023-04-29T07:34:59;99757.41;;;22.94;31.08
65175;BME280;51761;42.126;24.752;2023-04-29T07:37:24;99758.25;;;22.49;33.57
65175;BME280;51761;42.126;24.752;2023-04-29T07:39:50;99752.78;;;22.46;32.66
65175;BME280;51761;42.126;24.752;2023-04-29T07:42:17;99734.59;;;22.63;33.78
65175;BME280;51761;42.126;24.752;2023-04-29T07:44:43;99756.16;;;23.57;32.21
65175;BME280;51761;42.126;24.752;2023-04-29T07:47:10;99756.72;;;23.61;32.46
65175;BME280;51761;42.126;24.752;2023-04-29T07:49:36;99751.66;;;23.45;31.70
65175;BME280;51761;42.126;24.752;2023-04-29T07:52:03;99734.91;;;24.00;30.25
65175;BME280;51761;42.126;24.752;2023-04-29T07:54:29;99735.41;;;23.93;31.69
65175;BME280;51761;42.126;24.752;2023-04-29T07:56:57;99740.25;;;23.81;31.32
65175;BME280;51761;42.126;24.752;2023-04-29T07:59:22;99737.53;;;24.09;31.13
65175;BME280;51761;42.126;24.752;2023-04-29T08:01:48;99721.44;;;23.58;32.55
65175;BME280;51761;42.126;24.752;2023-04-29T08:04:13;99742.06;;;23.42;31.41
65175;BME280;51761;42.126;24.752;2023-04-29T08:06:39;99727.28;;;23.44;32.22
65175;BME280;51761;42.126;24.752;2023-04-29T08:09:06;99737.94;;;23.43;31.15
65175;BME280;51761;42.126;24.752;2023-04-29T08:11:31;99712.78;;;23.42;30.95
65175;BME280;51761;42.126;24.752;2023-04-29T08:13:57;99729.50;;;24.07;31.68
65175;BME280;51761;42.126;24.752;2023-04-29T08:16:24;99725.72;;;24.37;30.33
65175;BME280;51761;42.126;24.752;2023-04-29T08:18:51;99706.91;;;24.04;29.33
65175;BME280;51761;42.126;24.752;2023-04-29T08:21:17;99704.28;;;24.53;31.47
65175;BME280;51761;42.126;24.752;2023-04-29T08:23:43;99718.06;;;24.76;31.25
65175;BME280;51761;42.126;24.752;2023-04-29T08:26:10;99707.66;;;24.57;31.19
65175;BME280;51761;42.126;24.752;2023-04-29T08:28:37;99700.03;;;24.32;29.05
65175;BME280;51761;42.126;24.752;2023-04-29T08:31:02;99699.16;;;24.10;28.71
65175;BME280;51761;42.126;24.752;2023-04-29T08:33:31;99699.50;;;24.33;31.32
65175;BME280;51761;42.126;24.752;2023-04-29T08:35:58;99704.44;;;24.33;29.69
65175;BME280;51761;42.126;24.752;2023-04-29T08:38:30;99715.69;;;23.95;29.69
65175;BME280;51761;42.126;24.752;2023-04-29T08:40:56;99697.28;;;23.96;28.79
65175;BME280;51761;42.126;24.752;2023-04-29T08:43:22;99709.00;;;24.09;29.53
65175;BME280;51761;42.126;24.752;2023-04-29T08:45:48;99708.19;;;23.97;29.36
65175;BME280;51761;42.126;24.752;2023-04-29T08:48:18;99705.16;;;23.70;29.50
65175;BME280;51761;42.126;24.752;2023-04-29T08:50:44;99692.03;;;23.83;32.02
65175;BME280;51761;42.126;24.752;2023-04-29T08:53:11;99646.56;;;23.69;31.84
65175;BME280;51761;42.126;24.752;2023-04-29T08:55:42;99664.66;;;24.13;29.54
65175;BME280;51761;42.126;24.752;2023-04-29T08:58:08;99678.25;;;24.45;31.39
65175;BME280;51761;42.126;24.752;2023-04-29T09:00:35;99686.09;;;24.56;28.54
65175;BME280;51761;42.126;24.752;2023-04-29T09:03:17;99685.09;;;23.11;29.49
65175;BME280;51761;42.126;24.752;2023-04-29T09:05:47;99667.47;;;22.82;29.97
65175;BME280;51761;42.126;24.752;2023-04-29T09:08:15;99662.75;;;22.03;32.77
65175;BME280;51761;42.126;24.752;2023-04-29T09:10:42;99662.25;;;22.04;35.24
65175;BME280;51761;42.126;24.752;2023-04-29T09:13:08;99672.31;;;22.45;32.20
65175;BME280;51761;42.126;24.752;2023-04-29T09:15:37;99674.72;;;22.83;30.34
65175;BME280;51761;42.126;24.752;2023-04-29T09:18:04;99668.56;;;23.21;30.00
65175;BME280;51761;42.126;24.752;2023-04-29T09:20:30;99652.75;;;22.89;31.21
65175;BME280;51761;42.126;24.752;2023-04-29T09:23:00;99658.38;;;22.78;31.94
65175;BME280;51761;42.126;24.752;2023-04-29T09:25:27;99656.31;;;22.78;29.72
65175;BME280;51761;42.126;24.752;2023-04-29T09:27:53;99659.59;;;23.02;29.69
65175;BME280;51761;42.126;24.752;2023-04-29T09:30:20;99656.16;;;23.24;29.90
65175;BME280;51761;42.126;24.752;2023-04-29T09:32:45;99656.13;;;22.87;28.96
65175;BME280;51761;42.126;24.752;2023-04-29T09:35:29;99630.44;;;22.51;32.70
65175;BME280;51761;42.126;24.752;2023-04-29T09:38:13;99616.25;;;22.87;31.31
65175;BME280;51761;42.126;24.752;2023-04-29T09:40:41;99608.56;;;22.68;30.35
65175;BME280;51761;42.126;24.752;2023-04-29T09:43:14;99622.72;;;22.88;27.52
65175;BME280;51761;42.126;24.752;2023-04-29T09:45:42;99621.66;;;23.16;27.94
65175;BME280;51761;42.126;24.752;2023-04-29T09:48:09;99601.34;;;23.03;29.74
65175;BME280;51761;42.126;24.752;2023-04-29T09:50:36;99605.69;;;23.35;29.62
65175;BME280;51761;42.126;24.752;2023-04-29T09:53:02;99618.94;;;23.91;29.09
65175;BME280;51761;42.126;24.752;2023-04-29T09:55:27;99594.09;;;23.97;29.28
65175;BME280;51761;42.126;24.752;2023-04-29T09:57:54;99614.84;;;24.03;28.88
65175;BME280;51761;42.126;24.752;2023-04-29T10:00:20;99600.06;;;23.99;28.75
65175;BME280;51761;42.126;24.752;2023-04-29T10:02:47;99592.06;;;24.20;27.39
65175;BME280;51761;42.126;24.752;2023-04-29T10:05:14;99581.09;;;24.02;25.75
65175;BME280;51761;42.126;24.752;2023-04-29T10:07:40;99586.94;;;23.71;25.71
65175;BME280;51761;42.126;24.752;2023-04-29T10:10:06;99585.91;;;23.74;26.40
65175;BME280;51761;42.126;24.752;2023-04-29T10:12:34;99546.03;;;23.15;29.02
65175;BME280;51761;42.126;24.752;2023-04-29T10:20:07;99575.84;;;23.78;27.40
65175;BME280;51761;42.126;24.752;2023-04-29T10:22:42;99571.28;;;24.08;28.78
65175;BME280;51761;42.126;24.752;2023-04-29T10:25:10;99568.94;;;24.12;27.20
65175;BME280;51761;42.126;24.752;2023-04-29T10:27:36;99549.69;;;23.96;22.67
65175;BME280;51761;42.126;24.752;2023-04-29T10:30:02;99541.44;;;23.98;23.20
65175;BME280;51761;42.126;24.752;2023-04-29T10:32:30;99566.88;;;24.23;23.90
65175;BME280;51761;42.126;24.752;2023-04-29T10:34:59;99564.63;;;23.58;24.37
65175;BME280;51761;42.126;24.752;2023-04-29T10:37:26;99561.59;;;23.20;23.70
65175;BME280;51761;42.126;24.752;2023-04-29T10:42:48;99542.78;;;22.30;25.46
65175;BME280;51761;42.126;24.752;2023-04-29T10:53:12;99543.63;;;23.56;23.95
65175;BME280;51761;42.126;24.752;2023-04-29T10:55:39;99525.44;;;23.42;24.28
65175;BME280;51761;42.126;24.752;2023-04-29T10:58:05;99533.69;;;23.35;24.18
65175;BME280;51761;42.126;24.752;2023-04-29T11:00:32;99530.94;;;23.68;26.50
65175;BME280;51761;42.126;24.752;2023-04-29T11:03:00;99523.25;;;23.85;25.26
65175;BME280;51761;42.126;24.752;2023-04-29T11:05:33;99516.78;;;24.01;24.43
65175;BME280;51761;42.126;24.752;2023-04-29T11:08:10;99531.03;;;23.95;23.96
65175;BME280;51761;42.126;24.752;2023-04-29T11:10:40;99513.38;;;23.91;24.83
65175;BME280;51761;42.126;24.752;2023-04-29T11:15:51;99509.28;;;22.81;24.25
65175;BME280;51761;42.126;24.752;2023-04-29T11:18:17;99503.81;;;22.77;26.30
65175;BME280;51761;42.126;24.752;2023-04-29T11:21:12;99501.59;;;23.45;27.54
65175;BME280;51761;42.126;24.752;2023-04-29T11:23:38;99495.44;;;23.80;26.28
65175;BME280;51761;42.126;24.752;2023-04-29T11:26:09;99474.72;;;23.68;26.21
65175;BME280;51761;42.126;24.752;2023-04-29T11:28:35;99483.34;;;24.34;24.22
65175;BME280;51761;42.126;24.752;2023-04-29T11:31:00;99470.84;;;24.70;25.24
65175;BME280;51761;42.126;24.752;2023-04-29T11:33:30;99480.06;;;25.14;25.25
65175;BME280;51761;42.126;24.752;2023-04-29T11:35:57;99468.94;;;25.11;25.54
65175;BME280;51761;42.126;24.752;2023-04-29T11:38:29;99473.56;;;25.19;24.14
65175;BME280;51761;42.126;24.752;2023-04-29T11:40:56;99457.25;;;25.03;25.82
65175;BME280;51761;42.126;24.752;2023-04-29T11:43:23;99449.66;;;25.17;22.34
65175;BME280;51761;42.126;24.752;2023-04-29T11:45:49;99465.09;;;24.86;24.47
65175;BME280;51761;42.126;24.752;2023-04-29T11:50:52;99452.22;;;24.20;24.18
65175;BME280;51761;42.126;24.752;2023-04-29T11:53:20;99461.53;;;24.69;26.41
65175;BME280;51761;42.126;24.752;2023-04-29T11:55:47;99448.19;;;24.88;22.01
65175;BME280;51761;42.126;24.752;2023-04-29T11:58:15;99449.47;;;24.98;23.59
65175;BME280;51761;42.126;24.752;2023-04-29T12:00:46;99443.28;;;24.89;22.14
65175;BME280;51761;42.126;24.752;2023-04-29T12:03:16;99419.19;;;24.73;21.69
65175;BME280;51761;42.126;24.752;2023-04-29T12:05:55;99414.03;;;23.51;28.02
65175;BME280;51761;42.126;24.752;2023-04-29T12:08:22;99432.75;;;24.02;22.16
65175;BME280;51761;42.126;24.752;2023-04-29T12:10:48;99416.44;;;23.86;24.04
65175;BME280;51761;42.126;24.752;2023-04-29T12:13:18;99398.75;;;23.60;24.28
65175;BME280;51761;42.126;24.752;2023-04-29T12:15:48;99408.91;;;23.83;24.87
65175;BME280;51761;42.126;24.752;2023-04-29T12:18:15;99404.66;;;23.34;25.42
65175;BME280;51761;42.126;24.752;2023-04-29T12:20:42;99418.00;;;23.01;25.88
65175;BME280;51761;42.126;24.752;2023-04-29T12:23:15;99410.22;;;23.01;29.43
65175;BME280;51761;42.126;24.752;2023-04-29T12:25:52;99407.41;;;23.07;26.49
65175;BME280;51761;42.126;24.752;2023-04-29T12:28:18;99388.38;;;22.76;25.80
65175;BME280;51761;42.126;24.752;2023-04-29T12:30:49;99402.88;;;22.73;26.30
65175;BME280;51761;42.126;24.752;2023-04-29T12:33:18;99399.69;;;22.60;26.09
65175;BME280;51761;42.126;24.752;2023-04-29T12:35:44;99402.84;;;22.67;26.20
65175;BME280;51761;42.126;24.752;2023-04-29T12:38:10;99378.00;;;22.73;29.08
65175;BME280;51761;42.126;24.752;2023-04-29T12:40:37;99398.06;;;23.01;27.42
65175;BME280;51761;42.126;24.752;2023-04-29T12:43:07;99393.22;;;23.12;25.51
65175;BME280;51761;42.126;24.752;2023-04-29T12:45:33;99391.06;;;22.96;26.62
65175;BME280;51761;42.126;24.752;2023-04-29T12:48:00;99388.97;;;22.91;29.84
65175;BME280;51761;42.126;24.752;2023-04-29T12:50:37;99385.97;;;23.17;27.56
65175;BME280;51761;42.126;24.752;2023-04-29T12:53:04;99380.06;;;23.48;30.40
65175;BME280;51761;42.126;24.752;2023-04-29T12:55:35;99382.66;;;23.51;29.15
65175;BME280;51761;42.126;24.752;2023-04-29T12:58:02;99376.44;;;23.58;29.07
65175;BME280;51761;42.126;24.752;2023-04-29T13:00:28;99363.22;;;23.50;26.38
65175;BME280;51761;42.126;24.752;2023-04-29T13:02:54;99363.47;;;23.52;25.18
65175;BME280;51761;42.126;24.752;2023-04-29T13:05:19;99357.78;;;23.46;27.28
65175;BME280;51761;42.126;24.752;2023-04-29T13:07:46;99366.31;;;23.35;25.87
65175;BME280;51761;42.126;24.752;2023-04-29T13:10:12;99361.09;;;23.23;27.66
65175;BME280;51761;42.126;24.752;2023-04-29T13:12:37;99354.53;;;22.95;27.31
65175;BME280;51761;42.126;24.752;2023-04-29T13:15:04;99360.78;;;22.99;27.01
65175;BME280;51761;42.126;24.752;2023-04-29T13:17:30;99353.72;;;22.83;27.91
65175;BME280;51761;42.126;24.752;2023-04-29T13:19:56;99346.19;;;22.75;27.74
65175;BME280;51761;42.126;24.752;2023-04-29T13:22:22;99346.19;;;22.75;26.21
65175;BME280;51761;42.126;24.752;2023-04-29T13:24:47;99343.63;;;22.88;25.62
65175;BME280;51761;42.126;24.752;2023-04-29T13:27:13;99345.00;;;23.09;26.26
65175;BME280;51761;42.126;24.752;2023-04-29T13:29:38;99328.84;;;22.78;24.85